sensor_id;sensor_type;location;lat;lon;timestamp;P1;durP1;ratioP1;P2;durP2;ratioP2
30127;SDS011;16942;53.196;6.592;2023-03-12T00:00:01;4.83;;;3.13;;
30127;SDS011;16942;53.196;6.592;2023-03-12T00:02:28;6.40;;;3.03;;
30127;SDS011;16942;53.196;6.592;2023-03-12T00:04:54;6.10;;;3.40;;
30127;SDS011;16942;53.196;6.592;2023-03-12T00:07:20;6.33;;;3.07;;
30127;SDS011;16942;53.196;6.592;2023-03-12T00:09:46;4.97;;;3.00;;
30127;SDS011;16942;53.196;6.592;2023-03-12T00:12:12;5.90;;;2.57;;
30127;SDS011;16942;53.196;6.592;2023-03-12T00:14:38;5.63;;;3.13;;
30127;SDS011;16942;53.196;6.592;2023-03-12T00:17:04;4.47;;;2.70;;
30127;SDS011;16942;53.196;6.592;2023-03-12T00:19:30;3.37;;;2.30;;
30127;SDS011;16942;53.196;6.592;2023-03-12T00:21:56;8.70;;;2.77;;
30127;SDS011;16942;53.196;6.592;2023-03-12T00:24:23;3.73;;;2.70;;
30127;SDS011;16942;53.196;6.592;2023-03-12T00:26:49;6.33;;;2.80;;
30127;SDS011;16942;53.196;6.592;2023-03-12T00:29:15;6.10;;;2.87;;
30127;SDS011;16942;53.196;6.592;2023-03-12T00:31:41;7.27;;;3.03;;
30127;SDS011;16942;53.196;6.592;2023-03-12T00:34:07;4.47;;;2.63;;
30127;SDS011;16942;53.196;6.592;2023-03-12T00:36:33;7.97;;;2.70;;
30127;SDS011;16942;53.196;6.592;2023-03-12T00:39:00;6.43;;;3.10;;
30127;SDS011;16942;53.196;6.592;2023-03-12T00:41:26;4.60;;;3.03;;
30127;SDS011;16942;53.196;6.592;2023-03-12T00:43:52;4.30;;;2.87;;
30127;SDS011;16942;53.196;6.592;2023-03-12T00:46:18;4.87;;;2.80;;
30127;SDS011;16942;53.196;6.592;2023-03-12T00:48:44;5.37;;;2.70;;
30127;SDS011;16942;53.196;6.592;2023-03-12T00:51:10;6.67;;;2.90;;
30127;SDS011;16942;53.196;6.592;2023-03-12T00:53:36;4.03;;;3.20;;
30127;SDS011;16942;53.196;6.592;2023-03-12T00:56:03;8.67;;;3.43;;
30127;SDS011;16942;53.196;6.592;2023-03-12T00:58:29;4.50;;;3.00;;
30127;SDS011;16942;53.196;6.592;2023-03-12T01:00:55;8.70;;;3.43;;
30127;SDS011;16942;53.196;6.592;2023-03-12T01:03:21;8.90;;;3.67;;
30127;SDS011;16942;53.196;6.592;2023-03-12T01:05:47;12.07;;;3.90;;
30127;SDS011;16942;53.196;6.592;2023-03-12T01:08:18;5.70;;;3.03;;
30127;SDS011;16942;53.196;6.592;2023-03-12T01:10:44;8.50;;;3.50;;
30127;SDS011;16942;53.196;6.592;2023-03-12T01:13:10;6.63;;;3.40;;
30127;SDS011;16942;53.196;6.592;2023-03-12T01:15:36;9.10;;;4.13;;
30127;SDS011;16942;53.196;6.592;2023-03-12T01:18:02;5.43;;;3.80;;
30127;SDS011;16942;53.196;6.592;2023-03-12T01:20:28;5.80;;;3.80;;
30127;SDS011;16942;53.196;6.592;2023-03-12T01:22:54;6.60;;;3.90;;
30127;SDS011;16942;53.196;6.592;2023-03-12T01:25:20;8.47;;;3.70;;
30127;SDS011;16942;53.196;6.592;2023-03-12T01:27:46;8.57;;;4.57;;
30127;SDS011;16942;53.196;6.592;2023-03-12T01:30:12;8.27;;;3.90;;
30127;SDS011;16942;53.196;6.592;2023-03-12T01:32:38;8.40;;;4.80;;
30127;SDS011;16942;53.196;6.592;2023-03-12T01:35:05;11.90;;;4.53;;
30127;SDS011;16942;53.196;6.592;2023-03-12T01:37:31;8.33;;;4.40;;
30127;SDS011;16942;53.196;6.592;2023-03-12T01:39:57;8.80;;;5.17;;
30127;SDS011;16942;53.196;6.592;2023-03-12T01:42:23;8.93;;;4.50;;
30127;SDS011;16942;53.196;6.592;2023-03-12T01:47:18;11.67;;;4.97;;
30127;SDS011;16942;53.196;6.592;2023-03-12T01:49:45;15.40;;;6.20;;
30127;SDS011;16942;53.196;6.592;2023-03-12T01:52:15;11.50;;;6.60;;
30127;SDS011;16942;53.196;6.592;2023-03-12T01:57:09;13.23;;;7.57;;
30127;SDS011;16942;53.196;6.592;2023-03-12T01:59:38;11.97;;;7.20;;
30127;SDS011;16942;53.196;6.592;2023-03-12T02:02:05;9.87;;;6.67;;
30127;SDS011;16942;53.196;6.592;2023-03-12T02:04:32;14.50;;;8.83;;
30127;SDS011;16942;53.196;6.592;2023-03-12T02:07:09;17.43;;;9.07;;
30127;SDS011;16942;53.196;6.592;2023-03-12T02:09:40;12.03;;;7.10;;
30127;SDS011;16942;53.196;6.592;2023-03-12T02:12:07;12.53;;;6.00;;
30127;SDS011;16942;53.196;6.592;2023-03-12T02:14:33;6.70;;;4.77;;
30127;SDS011;16942;53.196;6.592;2023-03-12T02:16:59;12.90;;;5.20;;
30127;SDS011;16942;53.196;6.592;2023-03-12T02:21:51;9.27;;;4.30;;
30127;SDS011;16942;53.196;6.592;2023-03-12T02:26:46;9.23;;;3.93;;
30127;SDS011;16942;53.196;6.592;2023-03-12T02:29:13;9.07;;;4.00;;
30127;SDS011;16942;53.196;6.592;2023-03-12T02:31:45;6.07;;;3.80;;
30127;SDS011;16942;53.196;6.592;2023-03-12T02:34:13;6.27;;;3.50;;
30127;SDS011;16942;53.196;6.592;2023-03-12T02:36:39;7.70;;;4.13;;
30127;SDS011;16942;53.196;6.592;2023-03-12T02:39:06;7.80;;;4.03;;
30127;SDS011;16942;53.196;6.592;2023-03-12T02:41:33;8.00;;;3.60;;
30127;SDS011;16942;53.196;6.592;2023-03-12T02:46:34;6.63;;;3.53;;
30127;SDS011;16942;53.196;6.592;2023-03-12T02:49:00;8.07;;;3.17;;
30127;SDS011;16942;53.196;6.592;2023-03-12T02:51:26;8.10;;;3.80;;
30127;SDS011;16942;53.196;6.592;2023-03-12T02:53:52;11.73;;;4.07;;
30127;SDS011;16942;53.196;6.592;2023-03-12T02:56:23;8.40;;;3.10;;
30127;SDS011;16942;53.196;6.592;2023-03-12T02:58:49;5.20;;;2.90;;
30127;SDS011;16942;53.196;6.592;2023-03-12T03:01:15;5.27;;;3.07;;
30127;SDS011;16942;53.196;6.592;2023-03-12T03:03:41;9.93;;;3.23;;
30127;SDS011;16942;53.196;6.592;2023-03-12T03:06:07;6.97;;;3.10;;
30127;SDS011;16942;53.196;6.592;2023-03-12T03:08:33;7.90;;;3.00;;
30127;SDS011;16942;53.196;6.592;2023-03-12T03:10:59;7.00;;;3.30;;
30127;SDS011;16942;53.196;6.592;2023-03-12T03:13:27;5.47;;;2.80;;
30127;SDS011;16942;53.196;6.592;2023-03-12T03:15:53;7.13;;;2.70;;
30127;SDS011;16942;53.196;6.592;2023-03-12T03:18:21;6.83;;;2.97;;
30127;SDS011;16942;53.196;6.592;2023-03-12T03:20:53;4.17;;;2.83;;
30127;SDS011;16942;53.196;6.592;2023-03-12T03:23:19;9.57;;;2.87;;
30127;SDS011;16942;53.196;6.592;2023-03-12T03:25:45;4.30;;;3.17;;
30127;SDS011;16942;53.196;6.592;2023-03-12T03:28:11;4.37;;;2.70;;
30127;SDS011;16942;53.196;6.592;2023-03-12T03:30:37;9.43;;;3.20;;
30127;SDS011;16942;53.196;6.592;2023-03-12T03:33:03;8.30;;;3.03;;
30127;SDS011;16942;53.196;6.592;2023-03-12T03:35:29;4.87;;;2.60;;
30127;SDS011;16942;53.196;6.592;2023-03-12T03:37:55;4.73;;;2.70;;
30127;SDS011;16942;53.196;6.592;2023-03-12T03:40:21;8.07;;;2.83;;
30127;SDS011;16942;53.196;6.592;2023-03-12T03:42:47;4.50;;;3.10;;
30127;SDS011;16942;53.196;6.592;2023-03-12T03:45:13;5.40;;;3.00;;
30127;SDS011;16942;53.196;6.592;2023-03-12T03:47:39;6.13;;;3.00;;
30127;SDS011;16942;53.196;6.592;2023-03-12T03:50:05;8.90;;;3.00;;
30127;SDS011;16942;53.196;6.592;2023-03-12T03:52:31;5.17;;;2.60;;
30127;SDS011;16942;53.196;6.592;2023-03-12T03:54:57;6.80;;;2.87;;
30127;SDS011;16942;53.196;6.592;2023-03-12T03:57:24;5.50;;;2.87;;
30127;SDS011;16942;53.196;6.592;2023-03-12T03:59:50;6.33;;;3.00;;
30127;SDS011;16942;53.196;6.592;2023-03-12T04:02:16;4.90;;;3.40;;
30127;SDS011;16942;53.196;6.592;2023-03-12T04:04:42;5.30;;;3.03;;
30127;SDS011;16942;53.196;6.592;2023-03-12T04:07:08;5.30;;;3.03;;
30127;SDS011;16942;53.196;6.592;2023-03-12T04:09:35;15.60;;;3.40;;
30127;SDS011;16942;53.196;6.592;2023-03-12T04:12:01;4.13;;;2.60;;
30127;SDS011;16942;53.196;6.592;2023-03-12T04:14:27;4.53;;;2.97;;
30127;SDS011;16942;53.196;6.592;2023-03-12T04:16:53;5.90;;;2.60;;
30127;SDS011;16942;53.196;6.592;2023-03-12T04:19:19;4.93;;;2.93;;
30127;SDS011;16942;53.196;6.592;2023-03-12T04:21:45;6.17;;;3.10;;
30127;SDS011;16942;53.196;6.592;2023-03-12T04:24:12;7.33;;;3.10;;
30127;SDS011;16942;53.196;6.592;2023-03-12T04:26:38;4.77;;;2.80;;
30127;SDS011;16942;53.196;6.592;2023-03-12T04:29:04;10.13;;;3.17;;
30127;SDS011;16942;53.196;6.592;2023-03-12T04:31:30;7.27;;;3.00;;
30127;SDS011;16942;53.196;6.592;2023-03-12T04:33:56;7.33;;;2.93;;
30127;SDS011;16942;53.196;6.592;2023-03-12T04:36:23;7.73;;;3.03;;
30127;SDS011;16942;53.196;6.592;2023-03-12T04:38:49;7.80;;;3.03;;
30127;SDS011;16942;53.196;6.592;2023-03-12T04:41:15;4.30;;;2.90;;
30127;SDS011;16942;53.196;6.592;2023-03-12T04:43:41;5.30;;;2.93;;
30127;SDS011;16942;53.196;6.592;2023-03-12T04:46:08;5.73;;;3.30;;
30127;SDS011;16942;53.196;6.592;2023-03-12T04:48:34;5.23;;;3.03;;
30127;SDS011;16942;53.196;6.592;2023-03-12T04:51:01;4.77;;;3.43;;
30127;SDS011;16942;53.196;6.592;2023-03-12T04:53:27;9.40;;;3.50;;
30127;SDS011;16942;53.196;6.592;2023-03-12T04:55:53;9.23;;;3.20;;
30127;SDS011;16942;53.196;6.592;2023-03-12T04:58:19;6.60;;;3.30;;
30127;SDS011;16942;53.196;6.592;2023-03-12T05:00:46;4.47;;;3.30;;
30127;SDS011;16942;53.196;6.592;2023-03-12T05:03:12;7.43;;;3.83;;
30127;SDS011;16942;53.196;6.592;2023-03-12T05:05:38;6.77;;;3.43;;
30127;SDS011;16942;53.196;6.592;2023-03-12T05:08:04;4.60;;;3.40;;
30127;SDS011;16942;53.196;6.592;2023-03-12T05:10:30;5.77;;;3.80;;
30127;SDS011;16942;53.196;6.592;2023-03-12T05:12:56;3.60;;;2.97;;
30127;SDS011;16942;53.196;6.592;2023-03-12T05:15:22;6.07;;;3.47;;
30127;SDS011;16942;53.196;6.592;2023-03-12T05:17:49;6.60;;;3.30;;
30127;SDS011;16942;53.196;6.592;2023-03-12T05:20:15;6.37;;;3.27;;
30127;SDS011;16942;53.196;6.592;2023-03-12T05:22:43;4.73;;;3.17;;
30127;SDS011;16942;53.196;6.592;2023-03-12T05:25:09;6.93;;;3.80;;
30127;SDS011;16942;53.196;6.592;2023-03-12T05:27:36;9.13;;;3.47;;
30127;SDS011;16942;53.196;6.592;2023-03-12T05:30:03;4.73;;;3.23;;
30127;SDS011;16942;53.196;6.592;2023-03-12T05:32:30;8.23;;;4.10;;
30127;SDS011;16942;53.196;6.592;2023-03-12T05:34:56;5.27;;;3.57;;
30127;SDS011;16942;53.196;6.592;2023-03-12T05:37:22;5.83;;;3.40;;
30127;SDS011;16942;53.196;6.592;2023-03-12T05:39:48;8.00;;;3.77;;
30127;SDS011;16942;53.196;6.592;2023-03-12T05:42:14;4.43;;;3.30;;
30127;SDS011;16942;53.196;6.592;2023-03-12T05:44:40;5.13;;;3.20;;
30127;SDS011;16942;53.196;6.592;2023-03-12T05:47:07;10.53;;;3.80;;
30127;SDS011;16942;53.196;6.592;2023-03-12T05:49:33;7.93;;;3.97;;
30127;SDS011;16942;53.196;6.592;2023-03-12T05:51:59;6.80;;;3.60;;
30127;SDS011;16942;53.196;6.592;2023-03-12T05:54:25;9.17;;;3.63;;
30127;SDS011;16942;53.196;6.592;2023-03-12T05:56:51;7.40;;;3.67;;
30127;SDS011;16942;53.196;6.592;2023-03-12T05:59:17;6.33;;;3.90;;
30127;SDS011;16942;53.196;6.592;2023-03-12T06:01:43;4.57;;;3.57;;
30127;SDS011;16942;53.196;6.592;2023-03-12T06:04:09;6.17;;;3.27;;
30127;SDS011;16942;53.196;6.592;2023-03-12T06:06:35;12.77;;;3.23;;
30127;SDS011;16942;53.196;6.592;2023-03-12T06:09:03;6.40;;;3.63;;
30127;SDS011;16942;53.196;6.592;2023-03-12T06:11:29;6.63;;;3.50;;
30127;SDS011;16942;53.196;6.592;2023-03-12T06:13:56;6.20;;;3.30;;
30127;SDS011;16942;53.196;6.592;2023-03-12T06:16:23;5.90;;;3.90;;
30127;SDS011;16942;53.196;6.592;2023-03-12T06:18:56;5.03;;;3.73;;
30127;SDS011;16942;53.196;6.592;2023-03-12T06:21:24;7.60;;;4.30;;
30127;SDS011;16942;53.196;6.592;2023-03-12T06:23:50;6.63;;;3.77;;
30127;SDS011;16942;53.196;6.592;2023-03-12T06:26:17;6.67;;;4.10;;
30127;SDS011;16942;53.196;6.592;2023-03-12T06:28:43;8.27;;;4.03;;
30127;SDS011;16942;53.196;6.592;2023-03-12T06:31:10;9.00;;;4.00;;
30127;SDS011;16942;53.196;6.592;2023-03-12T06:33:36;6.97;;;4.37;;
30127;SDS011;16942;53.196;6.592;2023-03-12T06:36:03;7.53;;;4.10;;
30127;SDS011;16942;53.196;6.592;2023-03-12T06:38:29;7.43;;;3.90;;
30127;SDS011;16942;53.196;6.592;2023-03-12T06:41:05;6.30;;;4.00;;
30127;SDS011;16942;53.196;6.592;2023-03-12T06:43:32;8.67;;;4.10;;
30127;SDS011;16942;53.196;6.592;2023-03-12T06:45:59;6.73;;;4.20;;
30127;SDS011;16942;53.196;6.592;2023-03-12T06:48:26;6.43;;;4.17;;
30127;SDS011;16942;53.196;6.592;2023-03-12T06:50:52;8.03;;;4.30;;
30127;SDS011;16942;53.196;6.592;2023-03-12T06:53:19;7.40;;;4.40;;
30127;SDS011;16942;53.196;6.592;2023-03-12T06:55:45;9.47;;;4.50;;
30127;SDS011;16942;53.196;6.592;2023-03-12T06:58:11;8.23;;;4.60;;
30127;SDS011;16942;53.196;6.592;2023-03-12T07:00:37;8.80;;;4.80;;
30127;SDS011;16942;53.196;6.592;2023-03-12T07:03:04;11.63;;;4.60;;
30127;SDS011;16942;53.196;6.592;2023-03-12T07:05:30;7.17;;;4.20;;
30127;SDS011;16942;53.196;6.592;2023-03-12T07:07:56;8.23;;;4.37;;
30127;SDS011;16942;53.196;6.592;2023-03-12T07:10:22;6.07;;;4.47;;
30127;SDS011;16942;53.196;6.592;2023-03-12T07:12:48;9.87;;;5.07;;
30127;SDS011;16942;53.196;6.592;2023-03-12T07:15:14;9.63;;;4.77;;
30127;SDS011;16942;53.196;6.592;2023-03-12T07:17:40;12.43;;;5.53;;
30127;SDS011;16942;53.196;6.592;2023-03-12T07:20:06;11.00;;;4.60;;
30127;SDS011;16942;53.196;6.592;2023-03-12T07:22:33;14.17;;;4.83;;
30127;SDS011;16942;53.196;6.592;2023-03-12T07:24:59;12.07;;;4.93;;
30127;SDS011;16942;53.196;6.592;2023-03-12T07:27:25;15.07;;;5.20;;
30127;SDS011;16942;53.196;6.592;2023-03-12T07:29:51;11.60;;;5.80;;
30127;SDS011;16942;53.196;6.592;2023-03-12T07:32:17;13.47;;;6.10;;
30127;SDS011;16942;53.196;6.592;2023-03-12T07:34:43;10.57;;;6.00;;
30127;SDS011;16942;53.196;6.592;2023-03-12T07:37:09;13.97;;;6.23;;
30127;SDS011;16942;53.196;6.592;2023-03-12T07:39:35;9.70;;;5.87;;
30127;SDS011;16942;53.196;6.592;2023-03-12T07:42:01;13.17;;;6.37;;
30127;SDS011;16942;53.196;6.592;2023-03-12T07:44:27;10.87;;;6.47;;
30127;SDS011;16942;53.196;6.592;2023-03-12T07:46:53;12.27;;;6.23;;
30127;SDS011;16942;53.196;6.592;2023-03-12T07:49:19;9.73;;;6.63;;
30127;SDS011;16942;53.196;6.592;2023-03-12T07:51:45;18.17;;;7.50;;
30127;SDS011;16942;53.196;6.592;2023-03-12T07:54:12;9.13;;;6.10;;
30127;SDS011;16942;53.196;6.592;2023-03-12T07:56:38;9.17;;;5.80;;
30127;SDS011;16942;53.196;6.592;2023-03-12T07:59:04;14.77;;;6.43;;
30127;SDS011;16942;53.196;6.592;2023-03-12T08:01:30;12.73;;;7.20;;
30127;SDS011;16942;53.196;6.592;2023-03-12T08:03:59;16.83;;;7.13;;
30127;SDS011;16942;53.196;6.592;2023-03-12T08:06:26;13.53;;;7.20;;
30127;SDS011;16942;53.196;6.592;2023-03-12T08:08:52;11.50;;;6.37;;
30127;SDS011;16942;53.196;6.592;2023-03-12T08:11:18;11.50;;;7.07;;
30127;SDS011;16942;53.196;6.592;2023-03-12T08:13:44;10.53;;;6.90;;
30127;SDS011;16942;53.196;6.592;2023-03-12T08:16:10;13.40;;;7.57;;
30127;SDS011;16942;53.196;6.592;2023-03-12T08:18:37;15.07;;;7.60;;
30127;SDS011;16942;53.196;6.592;2023-03-12T08:21:03;12.40;;;8.23;;
30127;SDS011;16942;53.196;6.592;2023-03-12T08:23:29;16.20;;;8.33;;
30127;SDS011;16942;53.196;6.592;2023-03-12T08:25:56;15.67;;;7.90;;
30127;SDS011;16942;53.196;6.592;2023-03-12T08:28:23;13.80;;;7.80;;
30127;SDS011;16942;53.196;6.592;2023-03-12T08:30:53;12.93;;;7.43;;
30127;SDS011;16942;53.196;6.592;2023-03-12T08:33:20;9.93;;;7.30;;
30127;SDS011;16942;53.196;6.592;2023-03-12T08:35:47;12.37;;;7.90;;
30127;SDS011;16942;53.196;6.592;2023-03-12T08:38:13;14.30;;;7.60;;
30127;SDS011;16942;53.196;6.592;2023-03-12T08:40:39;12.73;;;7.10;;
30127;SDS011;16942;53.196;6.592;2023-03-12T08:43:05;14.27;;;7.47;;
30127;SDS011;16942;53.196;6.592;2023-03-12T08:45:32;13.30;;;7.37;;
30127;SDS011;16942;53.196;6.592;2023-03-12T08:48:00;12.40;;;6.70;;
30127;SDS011;16942;53.196;6.592;2023-03-12T08:50:26;8.47;;;6.40;;
30127;SDS011;16942;53.196;6.592;2023-03-12T08:52:54;9.27;;;6.33;;
30127;SDS011;16942;53.196;6.592;2023-03-12T08:55:20;11.47;;;6.53;;
30127;SDS011;16942;53.196;6.592;2023-03-12T08:57:46;11.97;;;6.57;;
30127;SDS011;16942;53.196;6.592;2023-03-12T09:00:13;11.93;;;7.20;;
30127;SDS011;16942;53.196;6.592;2023-03-12T09:02:42;7.40;;;5.50;;
30127;SDS011;16942;53.196;6.592;2023-03-12T09:05:08;9.90;;;5.77;;
30127;SDS011;16942;53.196;6.592;2023-03-12T09:07:35;11.10;;;5.73;;
30127;SDS011;16942;53.196;6.592;2023-03-12T09:10:01;11.83;;;6.60;;
30127;SDS011;16942;53.196;6.592;2023-03-12T09:12:27;15.87;;;6.30;;
30127;SDS011;16942;53.196;6.592;2023-03-12T09:14:53;10.97;;;6.47;;
30127;SDS011;16942;53.196;6.592;2023-03-12T09:17:19;9.47;;;5.43;;
30127;SDS011;16942;53.196;6.592;2023-03-12T09:19:45;14.10;;;6.03;;
30127;SDS011;16942;53.196;6.592;2023-03-12T09:22:11;13.40;;;5.87;;
30127;SDS011;16942;53.196;6.592;2023-03-12T09:24:37;11.77;;;5.73;;
30127;SDS011;16942;53.196;6.592;2023-03-12T09:27:03;11.47;;;5.37;;
30127;SDS011;16942;53.196;6.592;2023-03-12T09:29:30;6.47;;;4.87;;
30127;SDS011;16942;53.196;6.592;2023-03-12T09:31:57;10.33;;;5.83;;
30127;SDS011;16942;53.196;6.592;2023-03-12T09:34:23;8.57;;;5.93;;
30127;SDS011;16942;53.196;6.592;2023-03-12T09:36:49;8.13;;;5.87;;
30127;SDS011;16942;53.196;6.592;2023-03-12T09:39:15;8.20;;;5.77;;
30127;SDS011;16942;53.196;6.592;2023-03-12T09:41:43;9.23;;;5.50;;
30127;SDS011;16942;53.196;6.592;2023-03-12T09:46:56;14.50;;;6.63;;
30127;SDS011;16942;53.196;6.592;2023-03-12T09:49:33;10.40;;;6.00;;
30127;SDS011;16942;53.196;6.592;2023-03-12T09:51:59;8.80;;;6.43;;
30127;SDS011;16942;53.196;6.592;2023-03-12T09:54:40;11.73;;;6.80;;
30127;SDS011;16942;53.196;6.592;2023-03-12T09:57:18;10.20;;;6.93;;
30127;SDS011;16942;53.196;6.592;2023-03-12T09:59:46;9.13;;;7.20;;
30127;SDS011;16942;53.196;6.592;2023-03-12T10:02:23;11.30;;;6.93;;
30127;SDS011;16942;53.196;6.592;2023-03-12T10:04:57;12.47;;;7.50;;
30127;SDS011;16942;53.196;6.592;2023-03-12T10:07:47;13.47;;;8.00;;
30127;SDS011;16942;53.196;6.592;2023-03-12T10:13:05;12.00;;;7.77;;
30127;SDS011;16942;53.196;6.592;2023-03-12T10:18:06;10.33;;;7.17;;
30127;SDS011;16942;53.196;6.592;2023-03-12T10:20:50;9.43;;;7.70;;
30127;SDS011;16942;53.196;6.592;2023-03-12T10:25:56;10.47;;;8.03;;
30127;SDS011;16942;53.196;6.592;2023-03-12T10:28:28;11.33;;;7.27;;
30127;SDS011;16942;53.196;6.592;2023-03-12T10:31:00;11.83;;;7.23;;
30127;SDS011;16942;53.196;6.592;2023-03-12T10:33:34;14.17;;;6.90;;
30127;SDS011;16942;53.196;6.592;2023-03-12T10:36:05;10.20;;;7.07;;
30127;SDS011;16942;53.196;6.592;2023-03-12T10:38:34;8.60;;;6.63;;
30127;SDS011;16942;53.196;6.592;2023-03-12T10:41:09;10.47;;;6.63;;
30127;SDS011;16942;53.196;6.592;2023-03-12T10:43:36;12.07;;;7.63;;
30127;SDS011;16942;53.196;6.592;2023-03-12T10:46:23;10.60;;;7.17;;
30127;SDS011;16942;53.196;6.592;2023-03-12T10:52:04;12.73;;;7.37;;
30127;SDS011;16942;53.196;6.592;2023-03-12T10:54:32;10.63;;;7.97;;
30127;SDS011;16942;53.196;6.592;2023-03-12T10:56:58;12.47;;;7.93;;
30127;SDS011;16942;53.196;6.592;2023-03-12T10:59:26;12.50;;;7.93;;
30127;SDS011;16942;53.196;6.592;2023-03-12T11:01:53;13.07;;;8.30;;
30127;SDS011;16942;53.196;6.592;2023-03-12T11:04:23;13.27;;;8.53;;
30127;SDS011;16942;53.196;6.592;2023-03-12T11:07:03;12.43;;;8.70;;
30127;SDS011;16942;53.196;6.592;2023-03-12T11:09:30;20.57;;;9.10;;
30127;SDS011;16942;53.196;6.592;2023-03-12T11:11:56;12.17;;;8.77;;
30127;SDS011;16942;53.196;6.592;2023-03-12T11:14:23;12.43;;;7.83;;
30127;SDS011;16942;53.196;6.592;2023-03-12T11:16:49;11.53;;;8.13;;
30127;SDS011;16942;53.196;6.592;2023-03-12T11:19:26;14.43;;;9.03;;
30127;SDS011;16942;53.196;6.592;2023-03-12T11:21:55;14.20;;;8.60;;
30127;SDS011;16942;53.196;6.592;2023-03-12T11:24:21;12.40;;;9.13;;
30127;SDS011;16942;53.196;6.592;2023-03-12T11:26:51;12.70;;;8.83;;
30127;SDS011;16942;53.196;6.592;2023-03-12T11:31:47;13.40;;;8.57;;
30127;SDS011;16942;53.196;6.592;2023-03-12T11:34:26;15.47;;;9.77;;
30127;SDS011;16942;53.196;6.592;2023-03-12T11:37:03;16.47;;;9.80;;
30127;SDS011;16942;53.196;6.592;2023-03-12T11:50:21;11.30;;;8.47;;
30127;SDS011;16942;53.196;6.592;2023-03-12T11:57:55;14.13;;;9.23;;
30127;SDS011;16942;53.196;6.592;2023-03-12T12:00:30;16.43;;;8.27;;
30127;SDS011;16942;53.196;6.592;2023-03-12T12:16:19;13.23;;;7.70;;
30127;SDS011;16942;53.196;6.592;2023-03-12T12:19:07;13.37;;;8.27;;
30127;SDS011;16942;53.196;6.592;2023-03-12T12:21:43;12.07;;;8.03;;
30127;SDS011;16942;53.196;6.592;2023-03-12T12:32:03;16.10;;;9.13;;
30127;SDS011;16942;53.196;6.592;2023-03-12T12:37:19;13.17;;;8.23;;
30127;SDS011;16942;53.196;6.592;2023-03-12T12:39:48;14.17;;;8.90;;
30127;SDS011;16942;53.196;6.592;2023-03-12T12:42:17;13.43;;;8.83;;
30127;SDS011;16942;53.196;6.592;2023-03-12T12:44:47;12.83;;;8.47;;
30127;SDS011;16942;53.196;6.592;2023-03-12T12:47:15;14.97;;;8.57;;
30127;SDS011;16942;53.196;6.592;2023-03-12T12:49:44;14.43;;;9.10;;
30127;SDS011;16942;53.196;6.592;2023-03-12T12:52:15;16.17;;;8.93;;
30127;SDS011;16942;53.196;6.592;2023-03-12T12:59:39;14.77;;;8.40;;
30127;SDS011;16942;53.196;6.592;2023-03-12T13:02:16;19.97;;;10.53;;
30127;SDS011;16942;53.196;6.592;2023-03-12T13:04:44;17.77;;;9.70;;
30127;SDS011;16942;53.196;6.592;2023-03-12T13:14:44;18.43;;;10.30;;
30127;SDS011;16942;53.196;6.592;2023-03-12T13:17:24;15.90;;;8.43;;
30127;SDS011;16942;53.196;6.592;2023-03-12T13:25:03;19.43;;;10.07;;
30127;SDS011;16942;53.196;6.592;2023-03-12T13:27:39;31.47;;;10.70;;
30127;SDS011;16942;53.196;6.592;2023-03-12T13:33:13;22.90;;;9.63;;
30127;SDS011;16942;53.196;6.592;2023-03-12T13:35:39;22.23;;;9.80;;
30127;SDS011;16942;53.196;6.592;2023-03-12T13:38:09;25.40;;;10.07;;
30127;SDS011;16942;53.196;6.592;2023-03-12T13:40:38;21.23;;;9.37;;
30127;SDS011;16942;53.196;6.592;2023-03-12T13:43:11;31.83;;;9.83;;
30127;SDS011;16942;53.196;6.592;2023-03-12T13:48:17;22.60;;;8.83;;
30127;SDS011;16942;53.196;6.592;2023-03-12T13:50:57;31.13;;;9.30;;
30127;SDS011;16942;53.196;6.592;2023-03-12T13:53:24;20.87;;;7.20;;
30127;SDS011;16942;53.196;6.592;2023-03-12T13:56:09;25.67;;;7.47;;
30127;SDS011;16942;53.196;6.592;2023-03-12T13:58:47;24.73;;;7.33;;
30127;SDS011;16942;53.196;6.592;2023-03-12T14:01:16;25.27;;;7.33;;
30127;SDS011;16942;53.196;6.592;2023-03-12T14:03:43;25.47;;;7.50;;
30127;SDS011;16942;53.196;6.592;2023-03-12T14:06:13;29.70;;;7.27;;
30127;SDS011;16942;53.196;6.592;2023-03-12T14:19:03;30.13;;;7.20;;
30127;SDS011;16942;53.196;6.592;2023-03-12T14:21:34;24.63;;;6.10;;
30127;SDS011;16942;53.196;6.592;2023-03-12T14:24:02;17.73;;;5.67;;
30127;SDS011;16942;53.196;6.592;2023-03-12T14:26:31;27.80;;;7.10;;
30127;SDS011;16942;53.196;6.592;2023-03-12T14:29:07;22.60;;;5.73;;
30127;SDS011;16942;53.196;6.592;2023-03-12T14:31:34;25.63;;;6.33;;
30127;SDS011;16942;53.196;6.592;2023-03-12T14:34:37;25.27;;;6.10;;
30127;SDS011;16942;53.196;6.592;2023-03-12T14:42:06;24.57;;;6.30;;
30127;SDS011;16942;53.196;6.592;2023-03-12T14:44:34;22.97;;;6.40;;
30127;SDS011;16942;53.196;6.592;2023-03-12T14:47:02;23.20;;;6.00;;
30127;SDS011;16942;53.196;6.592;2023-03-12T14:49:30;22.03;;;6.30;;
30127;SDS011;16942;53.196;6.592;2023-03-12T14:51:56;14.60;;;5.77;;
30127;SDS011;16942;53.196;6.592;2023-03-12T14:54:24;27.07;;;6.20;;
30127;SDS011;16942;53.196;6.592;2023-03-12T14:56:50;21.93;;;5.60;;
30127;SDS011;16942;53.196;6.592;2023-03-12T15:00:20;30.50;;;6.20;;
30127;SDS011;16942;53.196;6.592;2023-03-12T15:02:12;29.00;;;5.60;;
30127;SDS011;16942;53.196;6.592;2023-03-12T15:04:39;31.47;;;6.47;;
30127;SDS011;16942;53.196;6.592;2023-03-12T15:07:06;26.47;;;5.90;;
30127;SDS011;16942;53.196;6.592;2023-03-12T15:09:34;25.03;;;5.67;;
30127;SDS011;16942;53.196;6.592;2023-03-12T15:12:02;25.13;;;5.70;;
30127;SDS011;16942;53.196;6.592;2023-03-12T15:14:33;24.20;;;5.50;;
30127;SDS011;16942;53.196;6.592;2023-03-12T15:17:00;30.53;;;5.67;;
30127;SDS011;16942;53.196;6.592;2023-03-12T15:19:32;37.40;;;6.57;;
30127;SDS011;16942;53.196;6.592;2023-03-12T15:21:58;26.90;;;5.90;;
30127;SDS011;16942;53.196;6.592;2023-03-12T15:24:24;19.43;;;5.40;;
30127;SDS011;16942;53.196;6.592;2023-03-12T15:26:50;35.60;;;6.20;;
30127;SDS011;16942;53.196;6.592;2023-03-12T15:29:24;35.33;;;6.63;;
30127;SDS011;16942;53.196;6.592;2023-03-12T15:31:51;26.87;;;6.03;;
30127;SDS011;16942;53.196;6.592;2023-03-12T15:36:56;31.57;;;6.20;;
30127;SDS011;16942;53.196;6.592;2023-03-12T15:39:26;33.03;;;6.10;;
30127;SDS011;16942;53.196;6.592;2023-03-12T15:41:53;33.60;;;5.80;;
30127;SDS011;16942;53.196;6.592;2023-03-12T15:46:47;26.37;;;6.23;;
30127;SDS011;16942;53.196;6.592;2023-03-12T15:49:18;31.70;;;7.10;;
30127;SDS011;16942;53.196;6.592;2023-03-12T15:51:56;44.53;;;6.07;;
30127;SDS011;16942;53.196;6.592;2023-03-12T15:54:26;34.67;;;5.77;;
30127;SDS011;16942;53.196;6.592;2023-03-12T15:56:53;34.17;;;5.57;;
30127;SDS011;16942;53.196;6.592;2023-03-12T15:59:23;31.60;;;5.83;;
30127;SDS011;16942;53.196;6.592;2023-03-12T16:01:54;39.37;;;8.50;;
30127;SDS011;16942;53.196;6.592;2023-03-12T16:04:20;41.63;;;6.57;;
30127;SDS011;16942;53.196;6.592;2023-03-12T16:06:47;35.50;;;6.60;;
30127;SDS011;16942;53.196;6.592;2023-03-12T16:09:17;38.70;;;5.87;;
30127;SDS011;16942;53.196;6.592;2023-03-12T16:11:44;40.20;;;5.97;;
30127;SDS011;16942;53.196;6.592;2023-03-12T16:14:15;36.10;;;5.13;;
30127;SDS011;16942;53.196;6.592;2023-03-12T16:16:42;31.93;;;5.67;;
30127;SDS011;16942;53.196;6.592;2023-03-12T16:19:09;27.97;;;6.23;;
30127;SDS011;16942;53.196;6.592;2023-03-12T16:21:36;35.80;;;5.33;;
30127;SDS011;16942;53.196;6.592;2023-03-12T16:24:02;32.53;;;5.77;;
30127;SDS011;16942;53.196;6.592;2023-03-12T16:26:28;35.90;;;7.20;;
30127;SDS011;16942;53.196;6.592;2023-03-12T16:28:54;38.07;;;6.30;;
30127;SDS011;16942;53.196;6.592;2023-03-12T16:31:20;38.57;;;5.63;;
30127;SDS011;16942;53.196;6.592;2023-03-12T16:33:46;36.50;;;7.07;;
30127;SDS011;16942;53.196;6.592;2023-03-12T16:36:15;29.50;;;5.67;;